createdAt,value
2018-11-20T08:23:14.779Z,4.07
2018-11-20T08:26:04.741Z,4.00
2018-11-20T08:29:03.771Z,5.47
2018-11-20T08:32:05.572Z,17.77
2018-11-20T08:34:50.581Z,4.53
2018-11-20T08:37:35.825Z,6.37
2018-11-20T08:40:40.707Z,22.80
2018-11-20T08:43:30.279Z,31.50
2018-11-20T08:46:15.693Z,13.67
2018-11-20T08:49:11.127Z,10.43
2018-11-20T08:52:08.429Z,7.40
2018-11-20T08:55:10.262Z,5.07
2018-11-20T08:57:55.814Z,7.03
2018-11-20T09:00:39.844Z,3.90
2018-11-20T09:03:27.815Z,4.07
2018-11-20T09:06:12.998Z,14.70
2018-11-20T09:08:59.823Z,13.33
2018-11-20T09:11:46.589Z,5.33
2018-11-20T09:14:51.548Z,5.00
2018-11-20T09:17:53.252Z,3.03
2018-11-20T09:20:40.033Z,10.27
2018-11-20T09:23:35.624Z,4.60
2018-11-20T09:26:18.275Z,4.43
2018-11-20T09:29:23.175Z,4.90
2018-11-20T09:32:07.347Z,4.33
2018-11-20T09:34:54.134Z,3.80
2018-11-20T09:37:43.775Z,3.50
2018-11-20T09:41:07.379Z,3.97
2018-11-20T09:43:57.209Z,4.23
2018-11-20T09:46:58.790Z,3.40
2018-11-20T09:49:57.589Z,4.47
2018-11-20T09:52:42.892Z,4.87
2018-11-20T09:55:30.311Z,4.33
2018-11-20T09:58:32.121Z,4.40
2018-11-20T10:01:12.846Z,3.70
2018-11-20T10:04:02.419Z,5.80
2018-11-20T10:06:55.263Z,5.00
2018-11-20T10:09:47.583Z,5.97
2018-11-20T10:12:40.095Z,4.90
2018-11-20T10:15:32.793Z,3.97
2018-11-20T10:18:31.610Z,3.50
2018-11-20T10:21:16.951Z,3.50
2018-11-20T10:24:21.551Z,5.67
2018-11-20T10:27:06.723Z,8.33
2018-11-20T10:32:56.657Z,4.13
2018-11-20T10:35:42.058Z,18.57
2018-11-20T10:38:31.480Z,8.87
2018-11-20T10:41:13.858Z,8.47
2018-11-20T10:43:59.435Z,8.00
2018-11-20T10:46:46.265Z,16.80
2018-11-20T10:52:12.611Z,5.73
2018-11-20T10:54:59.343Z,11.70
2018-11-20T10:58:01.119Z,6.83
2018-11-20T11:00:46.650Z,10.30
2018-11-20T11:03:32.625Z,4.90
2018-11-20T11:06:17.921Z,4.60
2018-11-20T11:09:05.485Z,4.83
2018-11-20T11:11:52.167Z,3.93
2018-11-20T11:14:53.985Z,5.13
2018-11-20T11:17:39.206Z,4.53
2018-11-20T11:20:32.525Z,5.43
2018-11-20T11:23:34.135Z,5.53
2018-11-20T11:26:17.491Z,5.50
2018-11-20T11:29:22.578Z,5.23
2018-11-20T11:32:15.564Z,5.13
2018-11-20T11:35:03.602Z,5.37
2018-11-20T11:38:02.628Z,4.93
2018-11-20T11:41:07.502Z,4.67
2018-11-20T11:44:03.218Z,4.93
2018-11-20T11:46:52.627Z,5.43
2018-11-20T11:49:54.704Z,5.10
2018-11-20T11:52:44.335Z,4.97
2018-11-20T11:55:34.009Z,5.80
2018-11-20T11:58:10.733Z,5.60
2018-11-20T12:00:58.494Z,6.73
2018-11-20T12:03:48.114Z,6.30
2018-11-20T12:06:37.846Z,6.20
2018-11-20T12:09:27.289Z,7.50
2018-11-20T12:12:17.116Z,7.00
2018-11-20T12:15:07.272Z,7.10
2018-11-20T12:17:52.348Z,7.90
2018-11-20T12:20:29.843Z,8.27
2018-11-20T12:23:15.226Z,7.43
2018-11-20T12:26:04.636Z,8.13
2018-11-20T12:28:51.110Z,8.83
2018-11-20T12:31:38.004Z,7.97
2018-11-20T12:34:40.136Z,10.57
2018-11-20T12:37:29.754Z,10.30
2018-11-20T12:40:12.403Z,9.93
2018-11-20T12:43:02.235Z,9.70
2018-11-20T12:45:55.822Z,10.93
2018-11-20T12:48:40.460Z,11.17
2018-11-20T12:51:21.525Z,11.17
2018-11-20T12:54:01.237Z,10.00
2018-11-20T12:56:48.040Z,9.47
2018-11-20T12:59:34.281Z,9.63
2018-11-20T13:02:31.838Z,11.07
2018-11-20T13:05:17.316Z,11.10
2018-11-20T13:08:06.795Z,10.87
2018-11-20T13:10:53.550Z,12.23
2018-11-20T13:13:50.214Z,13.83
2018-11-20T13:16:37.896Z,12.40
2018-11-20T13:19:25.470Z,13.00
2018-11-20T13:22:26.638Z,12.20
2018-11-20T13:25:25.212Z,14.57
2018-11-20T13:28:08.002Z,14.50
2018-11-20T13:30:53.767Z,13.07
2018-11-20T13:33:55.506Z,12.53
2018-11-20T13:36:40.844Z,12.87
2018-11-20T13:39:40.536Z,13.60
2018-11-20T13:42:31.905Z,12.40
2018-11-20T13:45:36.748Z,15.03
2018-11-20T13:48:22.400Z,16.93
2018-11-20T13:51:11.998Z,18.00
2018-11-20T13:54:04.699Z,18.70
2018-11-20T13:56:50.124Z,15.47
2018-11-20T13:59:35.458Z,14.70
2018-11-20T14:02:13.788Z,13.93
2018-11-20T14:05:00.720Z,14.10
2018-11-20T14:07:46.700Z,13.70
2018-11-20T14:10:32.528Z,14.80
2018-11-20T14:13:17.742Z,9.80
2018-11-20T14:16:02.864Z,13.03
2018-11-20T14:18:40.984Z,13.73
2018-11-20T14:21:45.887Z,12.27
2018-11-20T14:24:25.878Z,12.57
2018-11-20T14:27:11.286Z,15.23
2018-11-20T14:29:57.547Z,14.53
2018-11-20T14:32:43.110Z,14.13
2018-11-20T14:35:32.047Z,12.20
2018-11-20T14:38:17.342Z,13.17
2018-11-20T14:41:04.499Z,12.73
2018-11-20T14:44:07.191Z,13.57
2018-11-20T14:46:52.520Z,15.30
2018-11-20T14:49:41.061Z,12.93
2018-11-20T14:52:20.366Z,12.07
2018-11-20T14:55:05.892Z,13.53
2018-11-20T14:57:52.738Z,14.70
2018-11-20T15:00:39.536Z,15.80
2018-11-20T15:03:24.895Z,16.37
2018-11-20T15:06:10.412Z,14.63
2018-11-20T15:08:57.235Z,14.67
2018-11-20T15:11:49.908Z,17.70
2018-11-20T15:14:28.798Z,16.03
2018-11-20T15:17:18.521Z,19.90
2018-11-20T15:20:04.165Z,17.90
2018-11-20T15:22:49.628Z,16.67
2018-11-20T15:25:51.388Z,14.43
2018-11-20T15:28:53.030Z,15.40
2018-11-20T15:31:45.899Z,13.93
2018-11-20T15:34:27.972Z,12.83
2018-11-20T15:37:08.016Z,12.63
2018-11-20T15:39:54.788Z,12.67
2018-11-20T15:42:36.284Z,11.57
2018-11-20T15:45:23.106Z,12.57
2018-11-20T15:48:05.262Z,13.03
2018-11-20T15:50:50.277Z,13.00
2018-11-20T15:53:35.451Z,14.73
2018-11-20T15:56:28.029Z,16.33
2018-11-20T15:59:32.916Z,16.43
2018-11-20T16:02:25.584Z,16.20
2018-11-20T16:05:24.597Z,17.63
2018-11-20T16:08:00.024Z,18.17
2018-11-20T16:10:52.928Z,18.83
2018-11-20T16:13:54.759Z,21.27
2018-11-20T16:16:40.142Z,16.33
2018-11-20T16:19:21.313Z,14.33
2018-11-20T16:22:08.256Z,14.40
2018-11-20T16:25:00.931Z,15.60
2018-11-20T16:27:56.683Z,14.57
2018-11-20T16:30:43.449Z,16.00
2018-11-20T16:33:36.162Z,15.50
2018-11-20T16:36:31.682Z,15.83
2018-11-20T16:39:27.484Z,14.97
2018-11-20T16:42:15.953Z,12.30
2018-11-20T16:45:20.771Z,13.50
2018-11-20T16:48:36.158Z,12.73
2018-11-20T16:51:21.164Z,14.43
2018-11-20T16:54:11.555Z,12.53
2018-11-20T16:56:59.350Z,12.93
2018-11-20T16:59:54.866Z,13.17
2018-11-20T17:02:41.691Z,12.13
2018-11-20T17:05:34.290Z,14.90
2018-11-20T17:08:27.963Z,14.10
2018-11-20T17:11:13.300Z,12.07
2018-11-20T17:14:02.827Z,12.03
2018-11-20T17:16:43.511Z,12.80
2018-11-20T17:19:30.349Z,12.90
2018-11-20T17:22:17.139Z,11.97
2018-11-20T17:25:06.846Z,14.67
2018-11-20T17:34:23.584Z,12.10
2018-11-20T17:37:16.418Z,12.23
2018-11-20T17:39:53.983Z,13.57
2018-11-20T17:42:39.406Z,13.83
2018-11-20T17:45:36.398Z,12.97
2018-11-20T17:48:28.464Z,12.80
2018-11-20T17:51:27.402Z,13.67
2018-11-20T17:54:14.233Z,11.83
2018-11-20T17:57:13.048Z,13.17
2018-11-20T17:59:58.064Z,14.00
2018-11-20T18:02:51.234Z,12.40
2018-11-20T18:05:41.162Z,12.50
2018-11-20T18:08:37.070Z,12.87
2018-11-20T18:11:27.104Z,13.67
2018-11-20T18:14:13.916Z,11.77
2018-11-20T18:16:56.325Z,12.40
2018-11-20T18:19:46.082Z,14.00
2018-11-20T18:22:31.626Z,12.87
2018-11-20T18:25:17.269Z,13.50
2018-11-20T18:28:01.504Z,13.73
2018-11-20T18:31:03.402Z,11.57
2018-11-20T18:33:53.137Z,12.13
2018-11-20T18:36:42.922Z,10.90
2018-11-20T18:39:47.833Z,12.20
2018-11-20T18:42:34.583Z,13.80
2018-11-20T18:45:19.964Z,12.43
2018-11-20T18:48:15.554Z,15.30
2018-11-20T18:51:01.217Z,13.40
2018-11-20T18:53:36.854Z,13.80
2018-11-20T18:56:24.069Z,12.80
2018-11-20T18:59:09.338Z,13.03
2018-11-20T19:02:02.098Z,14.97
2018-11-20T19:04:39.664Z,15.73
2018-11-20T19:07:26.485Z,17.63
2018-11-20T19:10:23.346Z,13.33
2018-11-20T19:13:09.922Z,13.53
2018-11-20T19:15:58.106Z,14.63
2018-11-20T19:18:43.342Z,13.53
2018-11-20T19:21:35.817Z,13.30
2018-11-20T19:24:27.296Z,11.47
2018-11-20T19:27:12.827Z,13.40
2018-11-20T19:30:12.128Z,12.50
